createdAt,value
2023-04-10T00:00:57.602Z,1
2023-04-10T00:06:13.620Z,1
2023-04-10T00:11:29.978Z,2
2023-04-10T00:16:46.407Z,2
2023-04-10T00:22:02.720Z,1
2023-04-10T00:27:19.143Z,1
2023-04-10T00:32:35.519Z,2
2023-04-10T00:37:51.857Z,2
2023-04-10T00:43:08.285Z,3
2023-04-10T00:48:24.631Z,2
2023-04-10T00:53:41.040Z,3
2023-04-10T00:58:57.430Z,2
2023-04-10T01:04:13.946Z,4
2023-04-10T01:09:30.187Z,3
2023-04-10T01:14:46.545Z,2
2023-04-10T01:20:02.928Z,2
2023-04-10T01:25:19.358Z,1
2023-04-10T01:30:35.945Z,3
2023-04-10T01:35:52.477Z,2
2023-04-10T01:41:08.672Z,1
2023-04-10T01:46:25.143Z,2
2023-04-10T01:51:41.464Z,2
2023-04-10T01:56:57.831Z,3
2023-04-10T02:02:14.364Z,2
2023-04-10T02:07:30.637Z,3
2023-04-10T02:12:47.064Z,7
2023-04-10T02:18:03.453Z,6
2023-04-10T02:23:19.819Z,4
2023-04-10T02:28:36.214Z,3
2023-04-10T02:33:52.842Z,6
2023-04-10T02:39:08.993Z,5
2023-04-10T02:44:25.375Z,4
2023-04-10T02:49:41.774Z,6
2023-04-10T02:54:58.138Z,8
2023-04-10T03:00:14.512Z,5
2023-04-10T03:05:30.947Z,6
2023-04-10T03:10:47.280Z,4
2023-04-10T03:16:03.762Z,5
2023-04-10T03:21:20.156Z,5
2023-04-10T03:26:36.564Z,7
2023-04-10T03:31:53.030Z,9
2023-04-10T03:37:09.355Z,5
2023-04-10T03:42:25.786Z,5
2023-04-10T03:47:42.160Z,7
2023-04-10T03:52:58.572Z,5
2023-04-10T03:58:14.945Z,6
2023-04-10T04:03:31.440Z,9
2023-04-10T04:08:47.827Z,6
2023-04-10T04:14:04.217Z,6
2023-04-10T04:19:20.612Z,6
2023-04-10T04:24:36.983Z,6
2023-04-10T04:29:53.368Z,7
2023-04-10T04:35:09.808Z,12
2023-04-10T04:40:26.215Z,8
2023-04-10T04:45:42.670Z,6
2023-04-10T04:50:59.001Z,14
2023-04-10T04:56:15.462Z,26
2023-04-10T05:01:31.885Z,6
2023-04-10T05:06:48.197Z,11
2023-04-10T05:12:04.620Z,11
2023-04-10T05:17:21.013Z,11
2023-04-10T05:22:37.403Z,16
2023-04-10T05:27:53.796Z,12
2023-04-10T05:33:10.198Z,13
2023-04-10T05:38:26.606Z,14
2023-04-10T05:43:43.044Z,13
2023-04-10T05:48:59.464Z,13
2023-04-10T05:54:15.842Z,14
2023-04-10T05:59:32.238Z,17
2023-04-10T06:04:48.793Z,11
2023-04-10T06:10:05.042Z,9
2023-04-10T06:15:21.475Z,8
2023-04-10T06:20:37.871Z,12
2023-04-10T06:25:54.246Z,10
2023-04-10T06:31:10.723Z,12
2023-04-10T06:36:27.047Z,8
2023-04-10T06:41:43.464Z,7
2023-04-10T06:46:59.888Z,7
2023-04-10T06:52:16.222Z,6
2023-04-10T06:57:32.648Z,7
2023-04-10T07:02:49.008Z,6
2023-04-10T07:08:05.401Z,6
2023-04-10T07:13:21.776Z,8
2023-04-10T07:18:38.152Z,6
2023-04-10T07:23:54.545Z,4
2023-04-10T07:29:10.883Z,8
2023-04-10T07:34:27.316Z,10
2023-04-10T07:39:43.642Z,6
2023-04-10T07:45:00.067Z,5
2023-04-10T07:50:16.446Z,12
2023-04-10T07:55:32.782Z,8
2023-04-10T08:00:49.172Z,9
2023-04-10T08:06:05.539Z,6
2023-04-10T08:11:21.916Z,6
2023-04-10T08:16:38.292Z,7
2023-04-10T08:21:54.650Z,8
2023-04-10T08:27:11.003Z,6
2023-04-10T08:32:27.367Z,6
2023-04-10T08:37:49.625Z,5
2023-04-10T08:43:00.055Z,7
2023-04-10T08:48:16.406Z,6
2023-04-10T08:53:32.781Z,8
2023-04-10T08:58:49.105Z,6
2023-04-10T09:04:05.590Z,6
2023-04-10T09:09:21.779Z,7
2023-04-10T09:14:38.162Z,5
2023-04-10T09:19:54.516Z,5
2023-04-10T09:25:11.397Z,5
2023-04-10T09:30:27.757Z,6
2023-04-10T09:35:44.083Z,4
2023-04-10T09:41:00.446Z,5
2023-04-10T09:46:16.835Z,5
2023-04-10T09:51:33.115Z,6
2023-04-10T09:56:49.483Z,5
2023-04-10T10:02:05.946Z,5
2023-04-10T10:07:22.157Z,5
2023-04-10T10:12:38.487Z,6
2023-04-10T10:17:54.816Z,4
2023-04-10T10:23:11.238Z,4
2023-04-10T10:28:27.551Z,6
2023-04-10T10:33:43.937Z,6
2023-04-10T10:39:00.237Z,6
2023-04-10T10:44:16.593Z,5
2023-04-10T10:49:32.897Z,4
2023-04-10T10:54:58.859Z,4
2023-04-10T11:00:05.525Z,5
2023-04-10T11:05:21.834Z,4
2023-04-10T11:10:38.158Z,4
2023-04-10T11:15:54.438Z,5
2023-04-10T11:21:10.782Z,4
2023-04-10T11:26:27.121Z,5
2023-04-10T11:31:43.419Z,4
2023-04-10T11:36:59.750Z,4
2023-04-10T11:42:16.055Z,5
2023-04-10T11:47:32.417Z,5
2023-04-10T11:52:48.706Z,4
2023-04-10T11:58:05.011Z,5
2023-04-10T12:03:21.555Z,4
2023-04-10T12:08:37.690Z,5
2023-04-10T12:13:54.059Z,5
2023-04-10T12:19:10.334Z,7
2023-04-10T12:24:26.702Z,5
2023-04-10T12:29:43.003Z,6
2023-04-10T12:34:59.463Z,6
2023-04-10T12:40:15.655Z,7
2023-04-10T12:45:31.992Z,8
2023-04-10T12:50:48.358Z,6
2023-04-10T12:56:04.674Z,5
2023-04-10T13:01:20.999Z,6
2023-04-10T13:06:38.730Z,6
2023-04-10T13:11:53.642Z,5
2023-04-10T13:17:10.002Z,5
2023-04-10T13:22:26.340Z,5
2023-04-10T13:27:42.672Z,6
2023-04-10T13:32:59.129Z,6
2023-04-10T13:38:15.561Z,6
2023-04-10T13:43:31.961Z,6
2023-04-10T13:48:48.265Z,6
2023-04-10T13:54:04.669Z,5
2023-04-10T13:59:20.993Z,7
2023-04-10T14:04:37.374Z,6
2023-04-10T14:09:53.696Z,8
2023-04-10T14:15:10.049Z,9
2023-04-10T14:20:26.383Z,8
2023-04-10T14:25:42.753Z,7
2023-04-10T14:30:59.070Z,6
2023-04-10T14:36:15.521Z,8
2023-04-10T14:41:31.770Z,7
2023-04-10T14:46:48.202Z,6
2023-04-10T14:52:04.556Z,7
2023-04-10T14:57:20.841Z,8
2023-04-10T15:02:37.304Z,12
2023-04-10T15:07:53.533Z,8
2023-04-10T15:13:09.912Z,7
2023-04-10T15:18:26.240Z,11
2023-04-10T15:23:42.620Z,10
2023-04-10T15:28:58.991Z,7
2023-04-10T15:34:15.322Z,8
2023-04-10T15:39:31.667Z,7
2023-04-10T15:44:48.842Z,7
2023-04-10T15:50:04.370Z,8
2023-04-10T15:55:20.724Z,7
2023-04-10T16:00:37.033Z,8
2023-04-10T16:05:53.462Z,6
2023-04-10T16:11:09.738Z,4
2023-04-10T16:16:26.242Z,8
2023-04-10T16:21:42.424Z,6
2023-04-10T16:26:58.791Z,7
2023-04-10T16:32:15.157Z,5
2023-04-10T16:37:31.473Z,6
2023-04-10T16:42:47.856Z,6
2023-04-10T16:48:04.217Z,7
2023-04-10T16:53:20.564Z,22
2023-04-10T16:58:36.920Z,17
2023-04-10T17:03:53.353Z,7
2023-04-10T17:09:09.645Z,8
2023-04-10T17:14:26.007Z,11
2023-04-10T17:19:42.359Z,20
2023-04-10T17:24:58.735Z,9
2023-04-10T17:30:15.075Z,7
2023-04-10T17:35:31.461Z,8
2023-04-10T17:40:47.796Z,8
2023-04-10T17:46:04.151Z,15
2023-04-10T17:51:20.961Z,17
2023-04-10T17:56:37.706Z,39
2023-04-10T18:01:54.185Z,28
2023-04-10T18:07:10.487Z,23
2023-04-10T18:12:26.803Z,14
2023-04-10T18:17:43.216Z,20
2023-04-10T18:22:59.639Z,16
2023-04-10T18:28:17.589Z,14
2023-04-10T18:33:32.388Z,19
2023-04-10T18:38:49.303Z,19
2023-04-10T18:44:06.201Z,23
2023-04-10T18:49:22.056Z,17
2023-04-10T18:54:38.504Z,32
2023-04-10T18:59:54.838Z,16
2023-04-10T19:05:10.990Z,15
2023-04-10T19:10:27.355Z,34
2023-04-10T19:15:43.853Z,33
2023-04-10T19:21:00.161Z,22
2023-04-10T19:26:16.525Z,15
2023-04-10T19:31:33.001Z,37
2023-04-10T19:36:49.307Z,22
2023-04-10T19:42:05.731Z,19
2023-04-10T19:47:22.114Z,34
2023-04-10T19:52:39.076Z,48
2023-04-10T19:57:55.485Z,22
2023-04-10T20:03:12.036Z,27
2023-04-10T20:08:28.248Z,27
2023-04-10T20:13:44.670Z,22
2023-04-10T20:19:01.009Z,23
2023-04-10T20:24:17.433Z,21
2023-04-10T20:29:33.786Z,29
2023-04-10T20:34:50.193Z,33
2023-04-10T20:40:06.591Z,21
2023-04-10T20:45:22.722Z,25
2023-04-10T20:50:39.146Z,41
2023-04-10T20:55:56.107Z,32
2023-04-10T21:01:12.564Z,23
2023-04-10T21:06:28.916Z,18
2023-04-10T21:11:45.275Z,20
2023-04-10T21:17:01.720Z,21
2023-04-10T21:22:18.175Z,22
2023-04-10T21:27:34.468Z,19
2023-04-10T21:32:50.926Z,19
2023-04-10T21:38:07.242Z,33
2023-04-10T21:43:23.698Z,54
2023-04-10T21:48:40.095Z,38
2023-04-10T21:53:56.453Z,31
2023-04-10T21:59:12.950Z,39
2023-04-10T22:04:29.350Z,25
2023-04-10T22:09:45.712Z,31
2023-04-10T22:15:02.159Z,24
2023-04-10T22:20:18.496Z,23
2023-04-10T22:25:38.167Z,19
2023-04-10T22:30:51.307Z,18
2023-04-10T22:36:07.748Z,22
2023-04-10T22:41:24.063Z,21
2023-04-10T22:46:40.549Z,17
2023-04-10T22:51:56.862Z,17
2023-04-10T22:57:13.247Z,26
2023-04-10T23:02:29.712Z,27
2023-04-10T23:07:46.042Z,21
2023-04-10T23:13:02.411Z,23
2023-04-10T23:18:18.810Z,18
2023-04-10T23:23:35.206Z,16
2023-04-10T23:28:51.566Z,16
2023-04-10T23:34:07.966Z,16
2023-04-10T23:39:24.311Z,16
2023-04-10T23:44:40.722Z,15
2023-04-10T23:49:57.078Z,13
2023-04-10T23:55:13.459Z,18
